sensor_id;sensor_type;location;lat;lon;timestamp;pressure;altitude;pressure_sealevel;temperature;humidity
71194;BME280;58903;47.210;8.618;2023-04-01T00:01:44;93276.59;;;26.41;39.43
71194;BME280;58903;47.210;8.618;2023-04-01T00:04:10;93266.13;;;26.39;39.65
71194;BME280;58903;47.210;8.618;2023-04-01T00:06:37;93262.09;;;26.40;39.43
71194;BME280;58903;47.210;8.618;2023-04-01T00:09:03;93268.31;;;26.41;39.72
71194;BME280;58903;47.210;8.618;2023-04-01T00:11:29;93264.09;;;26.40;39.12
71194;BME280;58903;47.210;8.618;2023-04-01T00:13:55;93265.75;;;26.43;39.65
71194;BME280;58903;47.210;8.618;2023-04-01T00:16:22;93268.31;;;26.41;39.70
71194;BME280;58903;47.210;8.618;2023-04-01T00:18:58;93253.59;;;26.38;39.52
71194;BME280;58903;47.210;8.618;2023-04-01T00:21:57;93265.56;;;26.41;39.69
71194;BME280;58903;47.210;8.618;2023-04-01T00:28:06;93282.09;;;26.41;39.70
71194;BME280;58903;47.210;8.618;2023-04-01T00:30:43;93286.16;;;26.40;39.28
71194;BME280;58903;47.210;8.618;2023-04-01T00:33:15;93286.16;;;26.40;38.86
71194;BME280;58903;47.210;8.618;2023-04-01T00:35:44;93286.16;;;26.40;39.42
71194;BME280;58903;47.210;8.618;2023-04-01T00:38:10;93286.16;;;26.40;39.28
71194;BME280;58903;47.210;8.618;2023-04-01T00:40:41;93283.94;;;26.38;39.48
71194;BME280;58903;47.210;8.618;2023-04-01T00:43:19;93290.38;;;26.41;39.48
71194;BME280;58903;47.210;8.618;2023-04-01T00:45:56;93308.75;;;26.38;39.19
71194;BME280;58903;47.210;8.618;2023-04-01T00:48:31;93292.19;;;26.38;38.84
71194;BME280;58903;47.210;8.618;2023-04-01T00:51:07;93299.19;;;26.39;39.16
71194;BME280;58903;47.210;8.618;2023-04-01T00:53:53;93288.91;;;26.40;39.01
71194;BME280;58903;47.210;8.618;2023-04-01T00:56:48;93293.69;;;26.39;39.48
71194;BME280;58903;47.210;8.618;2023-04-01T00:59:25;93293.13;;;26.41;39.46
71194;BME280;58903;47.210;8.618;2023-04-01T01:01:55;93294.44;;;26.40;39.48
71194;BME280;58903;47.210;8.618;2023-04-01T01:04:27;93291.66;;;26.40;39.09
71194;BME280;58903;47.210;8.618;2023-04-01T01:15:46;93292.19;;;26.38;39.10
71194;BME280;58903;47.210;8.618;2023-04-01T01:37:14;93273.44;;;26.37;39.24
71194;BME280;58903;47.210;8.618;2023-04-01T01:40:03;93268.69;;;26.37;39.29
71194;BME280;58903;47.210;8.618;2023-04-01T01:42:43;93266.13;;;26.39;39.13
71194;BME280;58903;47.210;8.618;2023-04-01T01:45:16;93276.41;;;26.39;39.50
71194;BME280;58903;47.210;8.618;2023-04-01T01:48:08;93261.47;;;26.34;39.36
71194;BME280;58903;47.210;8.618;2023-04-01T01:51:01;93267.94;;;26.37;39.50
71194;BME280;58903;47.210;8.618;2023-04-01T01:54:03;93251.41;;;26.37;39.56
71194;BME280;58903;47.210;8.618;2023-04-01T01:56:32;93249.94;;;26.36;39.56
71194;BME280;58903;47.210;8.618;2023-04-01T01:59:11;93246.97;;;26.34;38.97
71194;BME280;58903;47.210;8.618;2023-04-01T02:02:09;93241.66;;;26.36;39.80
71194;BME280;58903;47.210;8.618;2023-04-01T02:04:43;93244.41;;;26.36;39.06
71194;BME280;58903;47.210;8.618;2023-04-01T02:07:38;93242.94;;;26.35;39.77
71194;BME280;58903;47.210;8.618;2023-04-01T02:10:06;93242.19;;;26.34;39.49
71194;BME280;58903;47.210;8.618;2023-04-01T02:12:46;93244.41;;;26.36;38.97
71194;BME280;58903;47.210;8.618;2023-04-01T02:15:16;93241.84;;;26.38;38.78
71194;BME280;58903;47.210;8.618;2023-04-01T02:17:47;93237.59;;;26.37;39.52
71194;BME280;58903;47.210;8.618;2023-04-01T02:20:22;93245.88;;;26.37;39.10
71194;BME280;58903;47.210;8.618;2023-04-01T02:22:53;93242.94;;;26.35;39.54
71194;BME280;58903;47.210;8.618;2023-04-01T02:25:27;93237.41;;;26.35;39.31
71194;BME280;58903;47.210;8.618;2023-04-01T02:27:57;93244.41;;;26.36;39.67
71194;BME280;58903;47.210;8.618;2023-04-01T02:30:27;93249.94;;;26.36;39.04
71194;BME280;58903;47.210;8.618;2023-04-01T02:32:57;93245.50;;;26.33;39.48
71194;BME280;58903;47.210;8.618;2023-04-01T02:35:25;93245.88;;;26.37;38.85
71194;BME280;58903;47.210;8.618;2023-04-01T02:37:53;93246.63;;;26.37;39.65
71194;BME280;58903;47.210;8.618;2023-04-01T02:40:21;93251.41;;;26.37;39.58
71194;BME280;58903;47.210;8.618;2023-04-01T02:42:51;93247.19;;;26.36;39.08
71194;BME280;58903;47.210;8.618;2023-04-01T02:45:17;93252.69;;;26.36;39.44
71194;BME280;58903;47.210;8.618;2023-04-01T02:47:43;93244.22;;;26.34;39.08
71194;BME280;58903;47.210;8.618;2023-04-01T02:50:11;93243.66;;;26.35;39.21
71194;BME280;58903;47.210;8.618;2023-04-01T02:52:37;93247.69;;;26.34;39.68
71194;BME280;58903;47.210;8.618;2023-04-01T02:55:08;93242.94;;;26.35;39.70
71194;BME280;58903;47.210;8.618;2023-04-01T02:57:34;93238.91;;;26.36;38.81
71194;BME280;58903;47.210;8.618;2023-04-01T03:00:00;93231.34;;;26.36;39.71
71194;BME280;58903;47.210;8.618;2023-04-01T03:02:36;93240.38;;;26.37;39.04
71194;BME280;58903;47.210;8.618;2023-04-01T03:05:03;93231.16;;;26.34;38.95
71194;BME280;58903;47.210;8.618;2023-04-01T03:07:29;93227.69;;;26.34;39.51
71194;BME280;58903;47.210;8.618;2023-04-01T03:09:55;93223.44;;;26.33;39.71
71194;BME280;58903;47.210;8.618;2023-04-01T03:12:23;93219.41;;;26.34;39.23
71194;BME280;58903;47.210;8.618;2023-04-01T03:14:50;93220.13;;;26.34;39.53
71194;BME280;58903;47.210;8.618;2023-04-01T03:17:17;93225.66;;;26.34;39.58
71194;BME280;58903;47.210;8.618;2023-04-01T03:19:42;93221.63;;;26.35;39.61
71194;BME280;58903;47.210;8.618;2023-04-01T03:22:11;93226.19;;;26.33;39.68
71194;BME280;58903;47.210;8.618;2023-04-01T03:24:47;93230.25;;;26.32;39.11
71194;BME280;58903;47.210;8.618;2023-04-01T03:27:13;93231.72;;;26.33;38.96
71194;BME280;58903;47.210;8.618;2023-04-01T03:29:40;93234.47;;;26.33;39.55
71194;BME280;58903;47.210;8.618;2023-04-01T03:32:14;93241.47;;;26.34;39.47
71194;BME280;58903;47.210;8.618;2023-04-01T03:34:53;93238.72;;;26.34;38.87
71194;BME280;58903;47.210;8.618;2023-04-01T03:37:50;93235.22;;;26.33;39.62
71194;BME280;58903;47.210;8.618;2023-04-01T03:40:16;93235.97;;;26.34;39.07
71194;BME280;58903;47.210;8.618;2023-04-01T03:43:03;93233.72;;;26.32;39.04
71194;BME280;58903;47.210;8.618;2023-04-01T03:45:32;93219.75;;;26.30;39.00
71194;BME280;58903;47.210;8.618;2023-04-01T03:48:03;93232.25;;;26.31;39.69
71194;BME280;58903;47.210;8.618;2023-04-01T03:50:29;93227.50;;;26.32;39.11
71194;BME280;58903;47.210;8.618;2023-04-01T03:52:57;93223.44;;;26.33;39.61
71194;BME280;58903;47.210;8.618;2023-04-01T03:55:40;93229.69;;;26.33;38.98
71194;BME280;58903;47.210;8.618;2023-04-01T03:58:09;93241.47;;;26.34;39.42
71194;BME280;58903;47.210;8.618;2023-04-01T04:04:10;93233.53;;;26.30;39.59
71194;BME280;58903;47.210;8.618;2023-04-01T04:06:49;93221.03;;;26.29;38.87
71194;BME280;58903;47.210;8.618;2023-04-01T04:09:30;93225.06;;;26.28;39.38
71194;BME280;58903;47.210;8.618;2023-04-01T04:12:04;93221.75;;;26.30;39.80
71194;BME280;58903;47.210;8.618;2023-04-01T04:14:50;93212.22;;;26.31;39.20
71194;BME280;58903;47.210;8.618;2023-04-01T04:17:35;93221.75;;;26.30;39.33
71194;BME280;58903;47.210;8.618;2023-04-01T04:20:14;93234.09;;;26.29;39.34
71194;BME280;58903;47.210;8.618;2023-04-01T04:22:42;93227.81;;;26.28;38.86
71194;BME280;58903;47.210;8.618;2023-04-01T04:25:26;93222.31;;;26.28;38.87
71194;BME280;58903;47.210;8.618;2023-04-01T04:27:52;93223.06;;;26.29;39.03
71194;BME280;58903;47.210;8.618;2023-04-01T04:30:19;93221.56;;;26.28;39.29
71194;BME280;58903;47.210;8.618;2023-04-01T04:33:05;93230.03;;;26.30;39.01
71194;BME280;58903;47.210;8.618;2023-04-01T04:36:02;93231.31;;;26.29;39.09
71194;BME280;58903;47.210;8.618;2023-04-01T04:38:35;93232.94;;;26.24;38.96
71194;BME280;58903;47.210;8.618;2023-04-01T04:41:14;93230.56;;;26.21;39.84
71194;BME280;58903;47.210;8.618;2023-04-01T04:43:41;93233.69;;;26.25;39.56
71194;BME280;58903;47.210;8.618;2023-04-01T04:46:21;93240.66;;;26.26;40.03
71194;BME280;58903;47.210;8.618;2023-04-01T04:48:47;93237.72;;;26.24;39.53
71194;BME280;58903;47.210;8.618;2023-04-01T04:51:16;93260.16;;;26.28;39.83
71194;BME280;58903;47.210;8.618;2023-04-01T04:53:49;93271.72;;;26.26;39.58
71194;BME280;58903;47.210;8.618;2023-04-01T04:56:20;93263.66;;;26.28;39.09
71194;BME280;58903;47.210;8.618;2023-04-01T04:58:47;93268.03;;;26.24;39.69
71194;BME280;58903;47.210;8.618;2023-04-01T05:01:25;93253.94;;;26.27;39.08
71194;BME280;58903;47.210;8.618;2023-04-01T05:04:12;93272.47;;;26.27;39.98
71194;BME280;58903;47.210;8.618;2023-04-01T05:06:39;93273.22;;;26.27;39.10
71194;BME280;58903;47.210;8.618;2023-04-01T05:09:15;93256.50;;;26.25;39.49
71194;BME280;58903;47.210;8.618;2023-04-01T05:12:02;93279.25;;;26.26;39.96
71194;BME280;58903;47.210;8.618;2023-04-01T05:14:31;93275.56;;;26.23;39.84
71194;BME280;58903;47.210;8.618;2023-04-01T05:16:58;93285.69;;;26.21;39.67
71194;BME280;58903;47.210;8.618;2023-04-01T05:19:27;93278.88;;;26.22;39.74
71194;BME280;58903;47.210;8.618;2023-04-01T05:22:02;93271.91;;;26.21;39.46
71194;BME280;58903;47.210;8.618;2023-04-01T05:24:37;93269.34;;;26.23;40.15
71194;BME280;58903;47.210;8.618;2023-04-01T05:27:03;93272.09;;;26.23;39.61
71194;BME280;58903;47.210;8.618;2023-04-01T05:29:59;93270.41;;;26.20;39.54
71194;BME280;58903;47.210;8.618;2023-04-01T05:32:26;93271.91;;;26.21;40.02
71194;BME280;58903;47.210;8.618;2023-04-01T05:35:01;93274.84;;;26.23;40.08
71194;BME280;58903;47.210;8.618;2023-04-01T05:37:34;93275.03;;;26.25;39.36
71194;BME280;58903;47.210;8.618;2023-04-01T05:40:00;93271.53;;;26.24;39.67
71194;BME280;58903;47.210;8.618;2023-04-01T05:42:29;93286.06;;;26.25;39.82
71194;BME280;58903;47.210;8.618;2023-04-01T05:44:56;93277.25;;;26.26;39.33
71194;BME280;58903;47.210;8.618;2023-04-01T05:47:24;93277.25;;;26.26;39.32
71194;BME280;58903;47.210;8.618;2023-04-01T05:49:58;93279.25;;;26.26;39.88
71194;BME280;58903;47.210;8.618;2023-04-01T05:52:26;93277.44;;;26.28;39.35
71194;BME280;58903;47.210;8.618;2023-04-01T05:54:52;93281.50;;;26.27;39.96
71194;BME280;58903;47.210;8.618;2023-04-01T05:57:19;93278.53;;;26.25;40.12
71194;BME280;58903;47.210;8.618;2023-04-01T05:59:54;93274.47;;;26.19;39.72
71194;BME280;58903;47.210;8.618;2023-04-01T06:02:27;93281.06;;;26.23;39.61
71194;BME280;58903;47.210;8.618;2023-04-01T06:05:23;93273.03;;;26.25;39.96
71194;BME280;58903;47.210;8.618;2023-04-01T06:07:58;93265.28;;;26.24;39.85
71194;BME280;58903;47.210;8.618;2023-04-01T06:19:47;93292.66;;;26.22;39.42
71194;BME280;58903;47.210;8.618;2023-04-01T06:22:31;93288.56;;;26.15;40.05
71194;BME280;58903;47.210;8.618;2023-04-01T06:34:39;93291.97;;;26.08;40.89
71194;BME280;58903;47.210;8.618;2023-04-01T06:51:33;93276.94;;;26.09;42.51
71194;BME280;58903;47.210;8.618;2023-04-01T06:54:17;93265.06;;;26.14;42.73
71194;BME280;58903;47.210;8.618;2023-04-01T06:57:08;93271.16;;;26.20;41.13
71194;BME280;58903;47.210;8.618;2023-04-01T06:59:41;93262.53;;;26.24;41.37
71194;BME280;58903;47.210;8.618;2023-04-01T07:04:43;93268.38;;;26.20;41.30
71194;BME280;58903;47.210;8.618;2023-04-01T07:14:22;93270.69;;;26.08;41.44
71194;BME280;58903;47.210;8.618;2023-04-01T07:17:15;93268.25;;;26.05;41.57
71194;BME280;58903;47.210;8.618;2023-04-01T07:22:42;93274.03;;;26.14;41.63
71194;BME280;58903;47.210;8.618;2023-04-01T07:25:15;93265.97;;;26.16;41.47
71194;BME280;58903;47.210;8.618;2023-04-01T07:28:03;93273.72;;;26.18;41.10
71194;BME280;58903;47.210;8.618;2023-04-01T07:45:52;93271.53;;;26.24;40.50
71194;BME280;58903;47.210;8.618;2023-04-01T07:48:45;93280.00;;;26.26;40.76
71194;BME280;58903;47.210;8.618;2023-04-01T07:57:23;93293.22;;;26.28;40.52
71194;BME280;58903;47.210;8.618;2023-04-01T08:05:29;93296.19;;;26.30;39.39
71194;BME280;58903;47.210;8.618;2023-04-01T08:20:39;93293.84;;;26.34;39.00
71194;BME280;58903;47.210;8.618;2023-04-01T08:23:27;93302.13;;;26.34;39.00
71194;BME280;58903;47.210;8.618;2023-04-01T08:29:10;93300.63;;;26.33;38.71
71194;BME280;58903;47.210;8.618;2023-04-01T08:32:06;93305.41;;;26.32;39.00
71194;BME280;58903;47.210;8.618;2023-04-01T08:34:40;93302.44;;;26.30;39.79
71194;BME280;58903;47.210;8.618;2023-04-01T08:37:34;93299.88;;;26.32;39.50
71194;BME280;58903;47.210;8.618;2023-04-01T08:49:22;93294.72;;;26.29;39.09
71194;BME280;58903;47.210;8.618;2023-04-01T08:52:29;93296.94;;;26.30;39.08
71194;BME280;58903;47.210;8.618;2023-04-01T09:21:10;93293.94;;;26.21;40.00
71194;BME280;58903;47.210;8.618;2023-04-01T09:27:14;93298.34;;;26.24;40.20
71194;BME280;58903;47.210;8.618;2023-04-01T09:36:04;93291.00;;;26.19;39.96
71194;BME280;58903;47.210;8.618;2023-04-01T09:44:53;93291.66;;;26.11;40.04
71194;BME280;58903;47.210;8.618;2023-04-01T09:47:56;93301.19;;;26.10;39.68
71194;BME280;58903;47.210;8.618;2023-04-01T09:50:35;93296.75;;;26.07;40.05
71194;BME280;58903;47.210;8.618;2023-04-01T09:53:18;93282.25;;;26.07;39.61
71194;BME280;58903;47.210;8.618;2023-04-01T09:59:31;93297.22;;;26.19;39.83
71194;BME280;58903;47.210;8.618;2023-04-01T10:08:24;93302.59;;;26.25;39.77
71194;BME280;58903;47.210;8.618;2023-04-01T10:20:31;93301.31;;;26.26;39.21
71194;BME280;58903;47.210;8.618;2023-04-01T10:26:18;93295.78;;;26.26;40.02
71194;BME280;58903;47.210;8.618;2023-04-01T10:41:21;93286.94;;;26.20;39.77
71194;BME280;58903;47.210;8.618;2023-04-01T10:47:43;93290.56;;;26.14;39.65
71194;BME280;58903;47.210;8.618;2023-04-01T11:32:07;93288.53;;;26.36;38.71
71194;BME280;58903;47.210;8.618;2023-04-01T11:40:25;93309.28;;;26.37;39.01
71194;BME280;58903;47.210;8.618;2023-04-01T11:43:23;93310.78;;;26.38;39.39
71194;BME280;58903;47.210;8.618;2023-04-01T12:10:44;93298.41;;;26.31;38.90
71194;BME280;58903;47.210;8.618;2023-04-01T12:19:35;93303.34;;;26.25;39.66
71194;BME280;58903;47.210;8.618;2023-04-01T12:28:29;93298.41;;;26.31;38.98
71194;BME280;58903;47.210;8.618;2023-04-01T12:34:37;93301.91;;;26.32;38.65
71194;BME280;58903;47.210;8.618;2023-04-01T12:47:16;93303.56;;;26.35;38.96
71194;BME280;58903;47.210;8.618;2023-04-01T13:12:00;93299.94;;;26.40;39.59
71194;BME280;58903;47.210;8.618;2023-04-01T13:17:37;93292.00;;;26.36;39.17
71194;BME280;58903;47.210;8.618;2023-04-01T13:24:03;93294.03;;;26.36;39.20
71194;BME280;58903;47.210;8.618;2023-04-01T13:29:57;93285.22;;;26.37;38.87
71194;BME280;58903;47.210;8.618;2023-04-01T13:44:05;93267.38;;;26.38;40.25
71194;BME280;58903;47.210;8.618;2023-04-01T14:07:06;93272.00;;;26.43;39.40
71194;BME280;58903;47.210;8.618;2023-04-01T14:10:05;93263.19;;;26.45;39.98
71194;BME280;58903;47.210;8.618;2023-04-01T14:36:07;93250.00;;;26.51;39.80
71194;BME280;58903;47.210;8.618;2023-04-01T14:42:23;93247.97;;;26.51;39.60
71194;BME280;58903;47.210;8.618;2023-04-01T14:47:46;93262.50;;;26.52;39.40
71194;BME280;58903;47.210;8.618;2023-04-01T14:50:18;93259.34;;;26.48;39.83
71194;BME280;58903;47.210;8.618;2023-04-01T14:53:11;93266.56;;;26.51;39.97
71194;BME280;58903;47.210;8.618;2023-04-01T14:55:55;93265.25;;;26.52;39.24
71194;BME280;58903;47.210;8.618;2023-04-01T14:58:25;93277.59;;;26.51;40.29
71194;BME280;58903;47.210;8.618;2023-04-01T15:07:17;93270.25;;;26.53;39.91
71194;BME280;58903;47.210;8.618;2023-04-01T15:13:13;93275.03;;;26.53;39.63
71194;BME280;58903;47.210;8.618;2023-04-01T15:18:51;93278.31;;;26.51;39.92
71194;BME280;58903;47.210;8.618;2023-04-01T15:22:00;93280.88;;;26.49;39.33
71194;BME280;58903;47.210;8.618;2023-04-01T15:27:41;93278.09;;;26.49;39.56
71194;BME280;58903;47.210;8.618;2023-04-01T15:48:16;93273.91;;;26.56;39.28
71194;BME280;58903;47.210;8.618;2023-04-01T16:02:48;93274.84;;;26.58;40.01
71194;BME280;58903;47.210;8.618;2023-04-01T16:14:14;93292.69;;;26.57;40.94
71194;BME280;58903;47.210;8.618;2023-04-01T16:25:17;93301.69;;;26.58;41.47
71194;BME280;58903;47.210;8.618;2023-04-01T16:28:31;93297.47;;;26.57;41.44
71194;BME280;58903;47.210;8.618;2023-04-01T16:33:58;93312.53;;;26.56;41.57
71194;BME280;58903;47.210;8.618;2023-04-01T16:36:44;93307.75;;;26.56;40.60
71194;BME280;58903;47.210;8.618;2023-04-01T16:39:41;93322.84;;;26.55;40.80
71194;BME280;58903;47.210;8.618;2023-04-01T16:48:15;93341.72;;;26.51;41.30
71194;BME280;58903;47.210;8.618;2023-04-01T16:53:31;93343.59;;;26.56;41.06
71194;BME280;58903;47.210;8.618;2023-04-01T16:56:22;93353.88;;;26.56;40.87
71194;BME280;58903;47.210;8.618;2023-04-01T16:59:29;93364.41;;;26.57;41.13
71194;BME280;58903;47.210;8.618;2023-04-01T17:02:17;93363.84;;;26.59;40.83
71194;BME280;58903;47.210;8.618;2023-04-01T17:04:45;93365.13;;;26.58;40.62
71194;BME280;58903;47.210;8.618;2023-04-01T17:08:01;93347.50;;;26.61;41.03
71194;BME280;58903;47.210;8.618;2023-04-01T17:10:52;93350.44;;;26.63;40.61
71194;BME280;58903;47.210;8.618;2023-04-01T17:25:35;93338.34;;;26.66;40.81
71194;BME280;58903;47.210;8.618;2023-04-01T17:28:14;93349.38;;;26.66;40.82
71194;BME280;58903;47.210;8.618;2023-04-01T17:42:39;93358.88;;;26.57;40.42
71194;BME280;58903;47.210;8.618;2023-04-01T17:45:26;93355.19;;;26.55;40.80
71194;BME280;58903;47.210;8.618;2023-04-01T17:56:49;93358.13;;;26.57;40.34
71194;BME280;58903;47.210;8.618;2023-04-01T17:59:37;93355.56;;;26.59;40.56
71194;BME280;58903;47.210;8.618;2023-04-01T18:02:23;93351.69;;;26.54;40.44
71194;BME280;58903;47.210;8.618;2023-04-01T18:05:45;93369.66;;;26.48;40.10
71194;BME280;58903;47.210;8.618;2023-04-01T18:08:44;93369.09;;;26.49;40.60
71194;BME280;58903;47.210;8.618;2023-04-01T18:14:37;93366.16;;;26.47;40.56
71194;BME280;58903;47.210;8.618;2023-04-01T18:23:03;93379.06;;;26.52;40.41
71194;BME280;58903;47.210;8.618;2023-04-01T18:25:37;93372.81;;;26.52;40.29
71194;BME280;58903;47.210;8.618;2023-04-01T18:28:33;93379.81;;;26.53;40.20
71194;BME280;58903;47.210;8.618;2023-04-01T18:37:00;93382.75;;;26.55;40.13
71194;BME280;58903;47.210;8.618;2023-04-01T18:40:04;93395.25;;;26.56;40.29
71194;BME280;58903;47.210;8.618;2023-04-01T18:46:03;93386.19;;;26.48;40.68
71194;BME280;58903;47.210;8.618;2023-04-01T18:51:38;93401.88;;;26.53;40.24
71194;BME280;58903;47.210;8.618;2023-04-01T18:54:27;93409.59;;;26.54;40.48
71194;BME280;58903;47.210;8.618;2023-04-01T18:57:24;93414.56;;;26.56;40.13
71194;BME280;58903;47.210;8.618;2023-04-01T19:00:03;93428.34;;;26.56;40.49
71194;BME280;58903;47.210;8.618;2023-04-01T19:03:00;93423.94;;;26.53;40.67
71194;BME280;58903;47.210;8.618;2023-04-01T19:05:33;93430.59;;;26.57;40.16
71194;BME280;58903;47.210;8.618;2023-04-01T19:08:32;93434.81;;;26.58;40.03
71194;BME280;58903;47.210;8.618;2023-04-01T19:11:23;93435.75;;;26.61;40.95
71194;BME280;58903;47.210;8.618;2023-04-01T19:29:18;93460.19;;;26.57;39.77
71194;BME280;58903;47.210;8.618;2023-04-01T19:35:26;93462.75;;;26.55;40.39
71194;BME280;58903;47.210;8.618;2023-04-01T19:47:37;93467.72;;;26.56;40.77
71194;BME280;58903;47.210;8.618;2023-04-01T19:51:09;93469.00;;;26.55;40.68
71194;BME280;58903;47.210;8.618;2023-04-01T19:56:43;93468.25;;;26.55;40.24
71194;BME280;58903;47.210;8.618;2023-04-01T19:59:28;93466.97;;;26.56;40.01
71194;BME280;58903;47.210;8.618;2023-04-01T20:04:56;93468.81;;;26.53;40.29
71194;BME280;58903;47.210;8.618;2023-04-01T20:07:39;93470.47;;;26.56;39.93
71194;BME280;58903;47.210;8.618;2023-04-01T20:16:00;93475.97;;;26.56;40.60
71194;BME280;58903;47.210;8.618;2023-04-01T20:18:59;93485.34;;;26.53;40.56
71194;BME280;58903;47.210;8.618;2023-04-01T20:21:43;93488.81;;;26.54;40.53
71194;BME280;58903;47.210;8.618;2023-04-01T20:27:07;93479.28;;;26.55;40.35
71194;BME280;58903;47.210;8.618;2023-04-01T20:41:44;93491.94;;;26.50;39.73
71194;BME280;58903;47.210;8.618;2023-04-01T20:44:13;93488.44;;;26.50;40.31
71194;BME280;58903;47.210;8.618;2023-04-01T20:46:48;93487.16;;;26.51;40.26
71194;BME280;58903;47.210;8.618;2023-04-01T20:52:15;93486.75;;;26.47;39.85
71194;BME280;58903;47.210;8.618;2023-04-01T21:01:13;93495.75;;;26.47;40.32
71194;BME280;58903;47.210;8.618;2023-04-01T21:04:19;93505.53;;;26.48;40.37
71194;BME280;58903;47.210;8.618;2023-04-01T21:07:16;93504.22;;;26.49;39.79
71194;BME280;58903;47.210;8.618;2023-04-01T21:26:00;93504.03;;;26.47;40.64
71194;BME280;58903;47.210;8.618;2023-04-01T21:35:23;93518.56;;;26.48;40.31
71194;BME280;58903;47.210;8.618;2023-04-01T22:05:08;93525.13;;;26.45;39.94
71194;BME280;58903;47.210;8.618;2023-04-01T22:16:06;93525.69;;;26.43;39.88
71194;BME280;58903;47.210;8.618;2023-04-01T22:30:17;93543.72;;;26.44;40.25
71194;BME280;58903;47.210;8.618;2023-04-01T22:33:30;93549.25;;;26.44;40.26
71194;BME280;58903;47.210;8.618;2023-04-01T22:44:43;93565.78;;;26.44;39.74
71194;BME280;58903;47.210;8.618;2023-04-01T22:47:22;93571.28;;;26.44;39.86
71194;BME280;58903;47.210;8.618;2023-04-01T22:52:45;93569.25;;;26.45;39.76
71194;BME280;58903;47.210;8.618;2023-04-01T22:55:28;93562.28;;;26.44;39.73
71194;BME280;58903;47.210;8.618;2023-04-01T22:58:05;93567.78;;;26.44;40.39
71194;BME280;58903;47.210;8.618;2023-04-01T23:00:38;93561.53;;;26.43;39.79
71194;BME280;58903;47.210;8.618;2023-04-01T23:06:00;93566.50;;;26.45;40.21
71194;BME280;58903;47.210;8.618;2023-04-01T23:11:19;93574.78;;;26.45;40.18
71194;BME280;58903;47.210;8.618;2023-04-01T23:16:38;93572.00;;;26.45;40.16
71194;BME280;58903;47.210;8.618;2023-04-01T23:19:17;93576.25;;;26.46;39.51
71194;BME280;58903;47.210;8.618;2023-04-01T23:22:24;93568.00;;;26.46;40.18
71194;BME280;58903;47.210;8.618;2023-04-01T23:28:30;93577.75;;;26.47;39.34
71194;BME280;58903;47.210;8.618;2023-04-01T23:31:02;93573.31;;;26.44;40.00
71194;BME280;58903;47.210;8.618;2023-04-01T23:37:18;93576.25;;;26.46;39.55
71194;BME280;58903;47.210;8.618;2023-04-01T23:39:55;93575.88;;;26.42;40.21
71194;BME280;58903;47.210;8.618;2023-04-01T23:42:42;93578.28;;;26.45;40.03
71194;BME280;58903;47.210;8.618;2023-04-01T23:45:17;93577.53;;;26.45;40.19
71194;BME280;58903;47.210;8.618;2023-04-01T23:48:01;93579.56;;;26.44;39.56
71194;BME280;58903;47.210;8.618;2023-04-01T23:50:37;93585.09;;;26.44;39.53
71194;BME280;58903;47.210;8.618;2023-04-01T23:53:34;93579.03;;;26.46;39.54
71194;BME280;58903;47.210;8.618;2023-04-01T23:56:03;93581.56;;;26.44;40.23
71194;BME280;58903;47.210;8.618;2023-04-01T23:58:49;93588.56;;;26.45;40.04
